EGXT - Wittering
Distance from station: E 5mi, 14km
Updated: 02/20/2018 12:50pm
Rain, Mostly cloudy
Rain, Mostly cloudy
 Wind from N
Wind: N 8 mph , 13 km/h
Temperature: 41°F , 5°C
Wind Chill: 36°F , 2°C
Dew Point: 41°F , 5°C
Humidity: 100%
Barometer: 30.24 inHg , 1024 hPa
Summary: Rain
Clouds: Mostly Cloudy
Visibility: 3 miles , 4 km
Cloud details: Few Clouds 500 ft
Mostly Cloudy 900 ft
2018/02/20 20:50 EGXT 202050Z AUTO 01007KT 4400 RA FEW005/// BKN009/// 05/05 Q1024